sensor_id;sensor_type;location;lat;lon;timestamp;P1;durP1;ratioP1;P2;durP2;ratioP2
48363;SDS011;34170;54.364;18.582;2023-06-19T00:01:53;10.10;;;7.15;;
48363;SDS011;34170;54.364;18.582;2023-06-19T00:04:21;7.85;;;6.30;;
48363;SDS011;34170;54.364;18.582;2023-06-19T00:06:49;8.40;;;6.75;;
48363;SDS011;34170;54.364;18.582;2023-06-19T00:09:16;8.43;;;6.65;;
48363;SDS011;34170;54.364;18.582;2023-06-19T00:11:44;11.30;;;7.78;;
48363;SDS011;34170;54.364;18.582;2023-06-19T00:14:12;10.48;;;7.90;;
48363;SDS011;34170;54.364;18.582;2023-06-19T00:16:40;8.85;;;7.30;;
48363;SDS011;34170;54.364;18.582;2023-06-19T00:19:08;11.32;;;7.85;;
48363;SDS011;34170;54.364;18.582;2023-06-19T00:21:37;10.43;;;7.68;;
48363;SDS011;34170;54.364;18.582;2023-06-19T00:24:05;11.13;;;8.70;;
48363;SDS011;34170;54.364;18.582;2023-06-19T00:26:33;12.25;;;9.07;;
48363;SDS011;34170;54.364;18.582;2023-06-19T00:29:01;11.10;;;9.13;;
48363;SDS011;34170;54.364;18.582;2023-06-19T00:31:29;9.65;;;7.85;;
48363;SDS011;34170;54.364;18.582;2023-06-19T00:33:56;11.43;;;8.73;;
48363;SDS011;34170;54.364;18.582;2023-06-19T00:36:25;10.43;;;8.25;;
48363;SDS011;34170;54.364;18.582;2023-06-19T00:38:53;10.07;;;8.23;;
48363;SDS011;34170;54.364;18.582;2023-06-19T00:41:21;12.02;;;8.88;;
48363;SDS011;34170;54.364;18.582;2023-06-19T00:43:49;11.20;;;9.20;;
48363;SDS011;34170;54.364;18.582;2023-06-19T00:46:19;10.45;;;8.63;;
48363;SDS011;34170;54.364;18.582;2023-06-19T00:48:47;11.95;;;8.73;;
48363;SDS011;34170;54.364;18.582;2023-06-19T00:51:17;11.98;;;9.25;;
48363;SDS011;34170;54.364;18.582;2023-06-19T00:53:45;13.13;;;9.63;;
48363;SDS011;34170;54.364;18.582;2023-06-19T00:56:13;10.95;;;9.32;;
48363;SDS011;34170;54.364;18.582;2023-06-19T00:58:42;12.90;;;9.65;;
48363;SDS011;34170;54.364;18.582;2023-06-19T01:01:10;11.77;;;9.82;;
48363;SDS011;34170;54.364;18.582;2023-06-19T01:03:38;11.90;;;8.88;;
48363;SDS011;34170;54.364;18.582;2023-06-19T01:06:13;13.50;;;10.23;;
48363;SDS011;34170;54.364;18.582;2023-06-19T01:11:18;13.38;;;9.98;;
48363;SDS011;34170;54.364;18.582;2023-06-19T01:13:55;12.38;;;9.32;;
48363;SDS011;34170;54.364;18.582;2023-06-19T01:16:26;15.52;;;11.30;;
48363;SDS011;34170;54.364;18.582;2023-06-19T01:18:56;13.43;;;10.30;;
48363;SDS011;34170;54.364;18.582;2023-06-19T01:21:24;13.93;;;10.85;;
48363;SDS011;34170;54.364;18.582;2023-06-19T01:23:51;13.88;;;10.57;;
48363;SDS011;34170;54.364;18.582;2023-06-19T01:26:22;15.35;;;10.82;;
48363;SDS011;34170;54.364;18.582;2023-06-19T01:28:56;15.23;;;11.10;;
48363;SDS011;34170;54.364;18.582;2023-06-19T01:31:26;14.93;;;12.02;;
48363;SDS011;34170;54.364;18.582;2023-06-19T01:34:05;14.52;;;10.60;;
48363;SDS011;34170;54.364;18.582;2023-06-19T01:36:36;15.95;;;11.30;;
48363;SDS011;34170;54.364;18.582;2023-06-19T01:39:04;14.40;;;11.60;;
48363;SDS011;34170;54.364;18.582;2023-06-19T01:41:33;14.52;;;11.20;;
48363;SDS011;34170;54.364;18.582;2023-06-19T01:44:01;11.45;;;8.98;;
48363;SDS011;34170;54.364;18.582;2023-06-19T01:46:29;13.85;;;10.98;;
48363;SDS011;34170;54.364;18.582;2023-06-19T01:48:57;12.73;;;9.80;;
48363;SDS011;34170;54.364;18.582;2023-06-19T01:51:26;14.88;;;10.45;;
48363;SDS011;34170;54.364;18.582;2023-06-19T01:53:54;13.15;;;10.55;;
48363;SDS011;34170;54.364;18.582;2023-06-19T01:56:23;12.68;;;9.93;;
48363;SDS011;34170;54.364;18.582;2023-06-19T01:58:51;14.32;;;10.80;;
48363;SDS011;34170;54.364;18.582;2023-06-19T02:01:19;15.75;;;10.85;;
48363;SDS011;34170;54.364;18.582;2023-06-19T02:03:46;15.25;;;11.13;;
48363;SDS011;34170;54.364;18.582;2023-06-19T02:06:14;12.35;;;9.43;;
48363;SDS011;34170;54.364;18.582;2023-06-19T02:08:42;11.65;;;9.25;;
48363;SDS011;34170;54.364;18.582;2023-06-19T02:11:11;12.25;;;9.50;;
48363;SDS011;34170;54.364;18.582;2023-06-19T02:13:40;12.05;;;8.98;;
48363;SDS011;34170;54.364;18.582;2023-06-19T02:16:08;11.48;;;9.38;;
48363;SDS011;34170;54.364;18.582;2023-06-19T02:18:36;13.05;;;10.10;;
48363;SDS011;34170;54.364;18.582;2023-06-19T02:21:04;12.95;;;9.88;;
48363;SDS011;34170;54.364;18.582;2023-06-19T02:23:31;11.30;;;9.20;;
48363;SDS011;34170;54.364;18.582;2023-06-19T02:26:00;12.73;;;10.02;;
48363;SDS011;34170;54.364;18.582;2023-06-19T02:28:27;12.73;;;10.48;;
48363;SDS011;34170;54.364;18.582;2023-06-19T02:30:55;13.15;;;9.93;;
48363;SDS011;34170;54.364;18.582;2023-06-19T02:33:23;12.43;;;9.68;;
48363;SDS011;34170;54.364;18.582;2023-06-19T02:35:52;12.73;;;9.38;;
48363;SDS011;34170;54.364;18.582;2023-06-19T02:38:26;12.85;;;9.98;;
48363;SDS011;34170;54.364;18.582;2023-06-19T02:40:54;11.75;;;9.27;;
48363;SDS011;34170;54.364;18.582;2023-06-19T02:43:24;11.70;;;9.30;;
48363;SDS011;34170;54.364;18.582;2023-06-19T02:45:52;12.93;;;9.85;;
48363;SDS011;34170;54.364;18.582;2023-06-19T02:48:20;12.48;;;10.05;;
48363;SDS011;34170;54.364;18.582;2023-06-19T02:50:48;15.63;;;11.63;;
48363;SDS011;34170;54.364;18.582;2023-06-19T02:53:16;13.98;;;11.05;;
48363;SDS011;34170;54.364;18.582;2023-06-19T02:55:45;13.57;;;10.63;;
48363;SDS011;34170;54.364;18.582;2023-06-19T02:58:13;12.55;;;10.23;;
48363;SDS011;34170;54.364;18.582;2023-06-19T03:00:40;14.30;;;10.88;;
48363;SDS011;34170;54.364;18.582;2023-06-19T03:03:08;12.80;;;10.00;;
48363;SDS011;34170;54.364;18.582;2023-06-19T03:05:37;10.93;;;9.20;;
48363;SDS011;34170;54.364;18.582;2023-06-19T03:08:05;11.70;;;9.75;;
48363;SDS011;34170;54.364;18.582;2023-06-19T03:10:33;11.18;;;9.25;;
48363;SDS011;34170;54.364;18.582;2023-06-19T03:13:01;12.45;;;9.07;;
48363;SDS011;34170;54.364;18.582;2023-06-19T03:15:29;12.02;;;9.27;;
48363;SDS011;34170;54.364;18.582;2023-06-19T03:17:57;11.20;;;8.85;;
48363;SDS011;34170;54.364;18.582;2023-06-19T03:20:25;13.10;;;9.68;;
48363;SDS011;34170;54.364;18.582;2023-06-19T03:22:56;12.45;;;9.20;;
48363;SDS011;34170;54.364;18.582;2023-06-19T03:25:25;12.20;;;9.32;;
48363;SDS011;34170;54.364;18.582;2023-06-19T03:27:53;11.57;;;8.77;;
48363;SDS011;34170;54.364;18.582;2023-06-19T03:30:22;10.65;;;7.95;;
48363;SDS011;34170;54.364;18.582;2023-06-19T03:32:51;9.13;;;7.50;;
48363;SDS011;34170;54.364;18.582;2023-06-19T03:35:39;8.55;;;6.40;;
48363;SDS011;34170;54.364;18.582;2023-06-19T03:38:14;10.88;;;7.13;;
48363;SDS011;34170;54.364;18.582;2023-06-19T03:40:42;10.15;;;7.32;;
48363;SDS011;34170;54.364;18.582;2023-06-19T03:43:12;7.97;;;6.53;;
48363;SDS011;34170;54.364;18.582;2023-06-19T03:45:41;8.48;;;6.93;;
48363;SDS011;34170;54.364;18.582;2023-06-19T03:48:09;9.23;;;6.78;;
48363;SDS011;34170;54.364;18.582;2023-06-19T03:50:37;7.93;;;6.28;;
48363;SDS011;34170;54.364;18.582;2023-06-19T03:53:06;9.45;;;5.70;;
48363;SDS011;34170;54.364;18.582;2023-06-19T03:55:34;7.38;;;6.45;;
48363;SDS011;34170;54.364;18.582;2023-06-19T03:58:02;7.57;;;6.25;;
48363;SDS011;34170;54.364;18.582;2023-06-19T04:00:32;7.03;;;5.50;;
48363;SDS011;34170;54.364;18.582;2023-06-19T04:03:00;6.40;;;5.70;;
48363;SDS011;34170;54.364;18.582;2023-06-19T04:05:29;7.85;;;6.00;;
48363;SDS011;34170;54.364;18.582;2023-06-19T04:07:56;6.32;;;5.72;;
48363;SDS011;34170;54.364;18.582;2023-06-19T04:10:24;6.18;;;5.55;;
48363;SDS011;34170;54.364;18.582;2023-06-19T04:12:53;5.88;;;5.30;;
48363;SDS011;34170;54.364;18.582;2023-06-19T04:15:23;6.22;;;5.63;;
48363;SDS011;34170;54.364;18.582;2023-06-19T04:17:52;7.95;;;5.90;;
48363;SDS011;34170;54.364;18.582;2023-06-19T04:20:20;7.43;;;6.13;;
48363;SDS011;34170;54.364;18.582;2023-06-19T04:22:49;6.50;;;5.20;;
48363;SDS011;34170;54.364;18.582;2023-06-19T04:25:19;7.80;;;5.45;;
48363;SDS011;34170;54.364;18.582;2023-06-19T04:27:46;6.80;;;5.63;;
48363;SDS011;34170;54.364;18.582;2023-06-19T04:30:14;6.97;;;5.40;;
48363;SDS011;34170;54.364;18.582;2023-06-19T04:32:42;5.82;;;5.30;;
48363;SDS011;34170;54.364;18.582;2023-06-19T04:35:10;6.60;;;5.50;;
48363;SDS011;34170;54.364;18.582;2023-06-19T04:37:37;7.05;;;5.32;;
48363;SDS011;34170;54.364;18.582;2023-06-19T04:40:05;6.53;;;5.43;;
48363;SDS011;34170;54.364;18.582;2023-06-19T04:42:36;5.90;;;5.30;;
48363;SDS011;34170;54.364;18.582;2023-06-19T04:45:06;6.30;;;5.47;;
48363;SDS011;34170;54.364;18.582;2023-06-19T04:47:34;6.78;;;5.65;;
48363;SDS011;34170;54.364;18.582;2023-06-19T04:50:18;7.72;;;5.60;;
48363;SDS011;34170;54.364;18.582;2023-06-19T04:52:46;9.75;;;5.03;;
48363;SDS011;34170;54.364;18.582;2023-06-19T04:55:14;7.18;;;5.03;;
48363;SDS011;34170;54.364;18.582;2023-06-19T04:57:42;8.02;;;5.45;;
48363;SDS011;34170;54.364;18.582;2023-06-19T05:00:10;7.82;;;5.05;;
48363;SDS011;34170;54.364;18.582;2023-06-19T05:02:38;5.35;;;4.85;;
48363;SDS011;34170;54.364;18.582;2023-06-19T05:05:06;5.75;;;5.20;;
48363;SDS011;34170;54.364;18.582;2023-06-19T05:07:34;7.28;;;5.28;;
48363;SDS011;34170;54.364;18.582;2023-06-19T05:10:02;7.50;;;5.60;;
48363;SDS011;34170;54.364;18.582;2023-06-19T05:12:29;6.72;;;5.13;;
48363;SDS011;34170;54.364;18.582;2023-06-19T05:14:57;7.10;;;5.35;;
48363;SDS011;34170;54.364;18.582;2023-06-19T05:17:25;5.55;;;4.90;;
48363;SDS011;34170;54.364;18.582;2023-06-19T05:19:53;6.80;;;4.93;;
48363;SDS011;34170;54.364;18.582;2023-06-19T05:22:20;7.47;;;5.20;;
48363;SDS011;34170;54.364;18.582;2023-06-19T05:24:51;5.15;;;4.30;;
48363;SDS011;34170;54.364;18.582;2023-06-19T05:27:19;6.75;;;4.30;;
48363;SDS011;34170;54.364;18.582;2023-06-19T05:29:47;5.22;;;4.65;;
48363;SDS011;34170;54.364;18.582;2023-06-19T05:32:15;5.68;;;4.65;;
48363;SDS011;34170;54.364;18.582;2023-06-19T05:34:42;5.78;;;4.60;;
48363;SDS011;34170;54.364;18.582;2023-06-19T05:37:10;6.28;;;4.18;;
48363;SDS011;34170;54.364;18.582;2023-06-19T05:39:38;4.82;;;4.35;;
48363;SDS011;34170;54.364;18.582;2023-06-19T05:42:06;4.43;;;3.92;;
48363;SDS011;34170;54.364;18.582;2023-06-19T05:44:34;5.90;;;4.18;;
48363;SDS011;34170;54.364;18.582;2023-06-19T05:47:02;4.88;;;4.25;;
48363;SDS011;34170;54.364;18.582;2023-06-19T05:49:30;6.38;;;4.03;;
48363;SDS011;34170;54.364;18.582;2023-06-19T05:51:58;4.53;;;4.13;;
48363;SDS011;34170;54.364;18.582;2023-06-19T05:54:26;5.57;;;4.00;;
48363;SDS011;34170;54.364;18.582;2023-06-19T05:56:54;4.60;;;3.53;;
48363;SDS011;34170;54.364;18.582;2023-06-19T05:59:22;5.10;;;3.75;;
48363;SDS011;34170;54.364;18.582;2023-06-19T06:01:49;5.20;;;3.95;;
48363;SDS011;34170;54.364;18.582;2023-06-19T06:04:18;4.25;;;3.67;;
48363;SDS011;34170;54.364;18.582;2023-06-19T06:06:49;4.25;;;3.88;;
48363;SDS011;34170;54.364;18.582;2023-06-19T06:09:16;3.97;;;3.58;;
48363;SDS011;34170;54.364;18.582;2023-06-19T06:11:44;4.10;;;3.70;;
48363;SDS011;34170;54.364;18.582;2023-06-19T06:14:12;5.07;;;3.78;;
48363;SDS011;34170;54.364;18.582;2023-06-19T06:16:40;6.03;;;3.70;;
48363;SDS011;34170;54.364;18.582;2023-06-19T06:19:07;4.10;;;3.33;;
48363;SDS011;34170;54.364;18.582;2023-06-19T06:21:35;3.83;;;3.53;;
48363;SDS011;34170;54.364;18.582;2023-06-19T06:24:03;4.75;;;3.50;;
48363;SDS011;34170;54.364;18.582;2023-06-19T06:26:31;3.90;;;3.42;;
48363;SDS011;34170;54.364;18.582;2023-06-19T06:28:59;4.13;;;3.15;;
48363;SDS011;34170;54.364;18.582;2023-06-19T06:31:27;4.32;;;3.78;;
48363;SDS011;34170;54.364;18.582;2023-06-19T06:33:55;4.88;;;3.17;;
48363;SDS011;34170;54.364;18.582;2023-06-19T06:36:22;4.05;;;2.90;;
48363;SDS011;34170;54.364;18.582;2023-06-19T06:39:02;5.05;;;3.53;;
48363;SDS011;34170;54.364;18.582;2023-06-19T06:41:30;3.70;;;3.22;;
48363;SDS011;34170;54.364;18.582;2023-06-19T06:43:57;4.55;;;3.75;;
48363;SDS011;34170;54.364;18.582;2023-06-19T06:46:25;4.95;;;3.90;;
48363;SDS011;34170;54.364;18.582;2023-06-19T06:48:53;6.07;;;3.40;;
48363;SDS011;34170;54.364;18.582;2023-06-19T06:51:21;5.65;;;3.90;;
48363;SDS011;34170;54.364;18.582;2023-06-19T06:53:50;4.15;;;3.75;;
48363;SDS011;34170;54.364;18.582;2023-06-19T06:56:17;5.93;;;3.22;;
48363;SDS011;34170;54.364;18.582;2023-06-19T06:58:45;5.57;;;3.97;;
48363;SDS011;34170;54.364;18.582;2023-06-19T07:01:14;4.95;;;3.72;;
48363;SDS011;34170;54.364;18.582;2023-06-19T07:03:42;5.35;;;3.55;;
48363;SDS011;34170;54.364;18.582;2023-06-19T07:06:09;4.72;;;3.83;;
48363;SDS011;34170;54.364;18.582;2023-06-19T07:08:37;4.22;;;3.50;;
48363;SDS011;34170;54.364;18.582;2023-06-19T07:11:07;3.55;;;3.22;;
48363;SDS011;34170;54.364;18.582;2023-06-19T07:13:35;4.20;;;3.30;;
48363;SDS011;34170;54.364;18.582;2023-06-19T07:16:03;4.18;;;3.30;;
48363;SDS011;34170;54.364;18.582;2023-06-19T07:18:32;3.30;;;3.00;;
48363;SDS011;34170;54.364;18.582;2023-06-19T07:21:02;3.40;;;3.10;;
48363;SDS011;34170;54.364;18.582;2023-06-19T07:23:34;3.38;;;2.70;;
48363;SDS011;34170;54.364;18.582;2023-06-19T07:28:31;3.92;;;3.38;;
48363;SDS011;34170;54.364;18.582;2023-06-19T07:30:59;2.88;;;2.67;;
48363;SDS011;34170;54.364;18.582;2023-06-19T07:33:27;6.95;;;3.10;;
48363;SDS011;34170;54.364;18.582;2023-06-19T07:35:54;4.90;;;3.40;;
48363;SDS011;34170;54.364;18.582;2023-06-19T07:38:23;3.40;;;3.10;;
48363;SDS011;34170;54.364;18.582;2023-06-19T07:40:50;2.58;;;2.38;;
48363;SDS011;34170;54.364;18.582;2023-06-19T07:43:18;3.17;;;2.88;;
48363;SDS011;34170;54.364;18.582;2023-06-19T07:45:46;5.10;;;3.92;;
48363;SDS011;34170;54.364;18.582;2023-06-19T07:48:14;3.40;;;3.10;;
48363;SDS011;34170;54.364;18.582;2023-06-19T07:50:41;5.47;;;3.15;;
48363;SDS011;34170;54.364;18.582;2023-06-19T07:53:10;4.97;;;3.40;;
48363;SDS011;34170;54.364;18.582;2023-06-19T07:55:37;3.35;;;3.00;;
48363;SDS011;34170;54.364;18.582;2023-06-19T07:58:05;5.43;;;3.40;;
48363;SDS011;34170;54.364;18.582;2023-06-19T08:00:33;3.53;;;3.22;;
48363;SDS011;34170;54.364;18.582;2023-06-19T08:03:01;5.90;;;3.83;;
48363;SDS011;34170;54.364;18.582;2023-06-19T08:05:28;5.18;;;3.38;;
48363;SDS011;34170;54.364;18.582;2023-06-19T08:07:58;6.60;;;3.80;;
48363;SDS011;34170;54.364;18.582;2023-06-19T08:10:26;4.90;;;3.58;;
48363;SDS011;34170;54.364;18.582;2023-06-19T08:12:54;4.70;;;3.30;;
48363;SDS011;34170;54.364;18.582;2023-06-19T08:15:21;2.83;;;2.20;;
48363;SDS011;34170;54.364;18.582;2023-06-19T08:17:49;4.10;;;2.67;;
48363;SDS011;34170;54.364;18.582;2023-06-19T08:20:17;6.65;;;3.20;;
48363;SDS011;34170;54.364;18.582;2023-06-19T08:22:45;3.33;;;2.28;;
48363;SDS011;34170;54.364;18.582;2023-06-19T08:25:12;4.35;;;2.60;;
48363;SDS011;34170;54.364;18.582;2023-06-19T08:27:41;5.78;;;3.20;;
48363;SDS011;34170;54.364;18.582;2023-06-19T08:30:08;5.28;;;3.22;;
48363;SDS011;34170;54.364;18.582;2023-06-19T08:32:36;6.05;;;3.22;;
48363;SDS011;34170;54.364;18.582;2023-06-19T08:35:04;5.47;;;3.00;;
48363;SDS011;34170;54.364;18.582;2023-06-19T08:37:32;5.90;;;3.67;;
48363;SDS011;34170;54.364;18.582;2023-06-19T08:40:00;7.22;;;3.63;;
48363;SDS011;34170;54.364;18.582;2023-06-19T08:42:30;7.57;;;3.50;;
48363;SDS011;34170;54.364;18.582;2023-06-19T08:44:58;4.07;;;3.30;;
48363;SDS011;34170;54.364;18.582;2023-06-19T08:47:32;5.60;;;3.33;;
48363;SDS011;34170;54.364;18.582;2023-06-19T08:50:01;3.55;;;3.22;;
48363;SDS011;34170;54.364;18.582;2023-06-19T08:52:30;4.55;;;3.33;;
48363;SDS011;34170;54.364;18.582;2023-06-19T08:54:57;4.72;;;3.88;;
48363;SDS011;34170;54.364;18.582;2023-06-19T08:57:47;4.47;;;3.05;;
48363;SDS011;34170;54.364;18.582;2023-06-19T09:00:25;4.47;;;3.10;;
48363;SDS011;34170;54.364;18.582;2023-06-19T09:04:25;4.70;;;3.08;;
48363;SDS011;34170;54.364;18.582;2023-06-19T09:09:23;3.10;;;2.80;;
48363;SDS011;34170;54.364;18.582;2023-06-19T09:12:03;3.90;;;2.75;;
48363;SDS011;34170;54.364;18.582;2023-06-19T09:14:44;5.28;;;3.42;;
48363;SDS011;34170;54.364;18.582;2023-06-19T09:17:17;4.97;;;3.13;;
48363;SDS011;34170;54.364;18.582;2023-06-19T09:19:48;8.15;;;4.43;;
48363;SDS011;34170;54.364;18.582;2023-06-19T09:22:18;4.63;;;3.58;;
48363;SDS011;34170;54.364;18.582;2023-06-19T09:24:48;4.25;;;3.85;;
48363;SDS011;34170;54.364;18.582;2023-06-19T09:27:17;4.47;;;3.70;;
48363;SDS011;34170;54.364;18.582;2023-06-19T09:29:47;4.53;;;3.80;;
48363;SDS011;34170;54.364;18.582;2023-06-19T09:32:20;4.78;;;4.00;;
48363;SDS011;34170;54.364;18.582;2023-06-19T09:34:56;4.38;;;3.22;;
48363;SDS011;34170;54.364;18.582;2023-06-19T09:37:28;3.80;;;3.40;;
48363;SDS011;34170;54.364;18.582;2023-06-19T09:39:58;5.63;;;4.07;;
48363;SDS011;34170;54.364;18.582;2023-06-19T09:42:32;7.30;;;4.87;;
48363;SDS011;34170;54.364;18.582;2023-06-19T09:45:02;13.77;;;5.30;;
48363;SDS011;34170;54.364;18.582;2023-06-19T09:47:44;8.75;;;5.57;;
48363;SDS011;34170;54.364;18.582;2023-06-19T09:50:16;11.45;;;5.22;;
48363;SDS011;34170;54.364;18.582;2023-06-19T09:52:49;15.77;;;5.93;;
48363;SDS011;34170;54.364;18.582;2023-06-19T09:55:18;11.75;;;6.22;;
48363;SDS011;34170;54.364;18.582;2023-06-19T09:57:47;15.05;;;6.20;;
48363;SDS011;34170;54.364;18.582;2023-06-19T10:00:15;10.68;;;5.57;;
48363;SDS011;34170;54.364;18.582;2023-06-19T10:02:49;9.40;;;5.68;;
48363;SDS011;34170;54.364;18.582;2023-06-19T10:05:27;8.57;;;6.22;;
48363;SDS011;34170;54.364;18.582;2023-06-19T10:07:57;10.13;;;6.03;;
48363;SDS011;34170;54.364;18.582;2023-06-19T10:10:28;12.50;;;8.02;;
48363;SDS011;34170;54.364;18.582;2023-06-19T10:13:15;15.63;;;8.43;;
48363;SDS011;34170;54.364;18.582;2023-06-19T10:15:44;18.70;;;10.13;;
48363;SDS011;34170;54.364;18.582;2023-06-19T10:18:16;17.48;;;10.63;;
48363;SDS011;34170;54.364;18.582;2023-06-19T10:20:45;18.20;;;9.60;;
48363;SDS011;34170;54.364;18.582;2023-06-19T10:23:19;14.07;;;8.57;;
48363;SDS011;34170;54.364;18.582;2023-06-19T10:28:21;18.92;;;8.40;;
48363;SDS011;34170;54.364;18.582;2023-06-19T10:31:04;11.13;;;7.75;;
48363;SDS011;34170;54.364;18.582;2023-06-19T10:33:34;16.83;;;8.30;;
48363;SDS011;34170;54.364;18.582;2023-06-19T10:36:16;11.82;;;7.57;;
48363;SDS011;34170;54.364;18.582;2023-06-19T10:38:46;15.60;;;7.85;;
48363;SDS011;34170;54.364;18.582;2023-06-19T10:41:20;12.97;;;7.23;;
48363;SDS011;34170;54.364;18.582;2023-06-19T10:43:55;10.32;;;7.13;;
48363;SDS011;34170;54.364;18.582;2023-06-19T10:46:27;10.68;;;6.85;;
48363;SDS011;34170;54.364;18.582;2023-06-19T10:48:58;8.68;;;6.25;;
48363;SDS011;34170;54.364;18.582;2023-06-19T10:51:28;10.55;;;6.28;;
48363;SDS011;34170;54.364;18.582;2023-06-19T10:53:56;16.88;;;7.72;;
48363;SDS011;34170;54.364;18.582;2023-06-19T10:56:24;10.50;;;6.15;;
48363;SDS011;34170;54.364;18.582;2023-06-19T10:59:08;12.30;;;7.03;;
48363;SDS011;34170;54.364;18.582;2023-06-19T11:01:39;10.38;;;6.72;;
48363;SDS011;34170;54.364;18.582;2023-06-19T11:04:13;12.70;;;7.70;;
48363;SDS011;34170;54.364;18.582;2023-06-19T11:06:42;16.45;;;7.03;;
48363;SDS011;34170;54.364;18.582;2023-06-19T11:09:11;12.68;;;7.00;;
48363;SDS011;34170;54.364;18.582;2023-06-19T11:11:41;12.15;;;6.85;;
48363;SDS011;34170;54.364;18.582;2023-06-19T11:14:09;13.48;;;6.32;;
48363;SDS011;34170;54.364;18.582;2023-06-19T11:16:38;18.17;;;9.30;;
48363;SDS011;34170;54.364;18.582;2023-06-19T11:19:19;13.25;;;6.45;;
48363;SDS011;34170;54.364;18.582;2023-06-19T11:21:49;13.05;;;6.95;;
48363;SDS011;34170;54.364;18.582;2023-06-19T11:24:18;18.02;;;6.90;;
48363;SDS011;34170;54.364;18.582;2023-06-19T11:26:48;12.45;;;6.90;;
48363;SDS011;34170;54.364;18.582;2023-06-19T11:29:19;9.38;;;5.93;;
48363;SDS011;34170;54.364;18.582;2023-06-19T11:31:49;12.50;;;6.70;;
48363;SDS011;34170;54.364;18.582;2023-06-19T11:34:17;15.23;;;6.20;;
48363;SDS011;34170;54.364;18.582;2023-06-19T11:36:52;11.60;;;6.35;;
48363;SDS011;34170;54.364;18.582;2023-06-19T11:39:20;12.38;;;6.22;;
48363;SDS011;34170;54.364;18.582;2023-06-19T11:41:49;10.73;;;6.03;;
48363;SDS011;34170;54.364;18.582;2023-06-19T11:44:21;10.80;;;5.78;;
48363;SDS011;34170;54.364;18.582;2023-06-19T11:46:49;13.02;;;6.28;;
48363;SDS011;34170;54.364;18.582;2023-06-19T11:49:17;12.75;;;6.35;;
48363;SDS011;34170;54.364;18.582;2023-06-19T11:51:46;15.07;;;6.57;;
48363;SDS011;34170;54.364;18.582;2023-06-19T11:54:15;12.60;;;6.45;;
48363;SDS011;34170;54.364;18.582;2023-06-19T11:56:43;9.50;;;6.63;;
48363;SDS011;34170;54.364;18.582;2023-06-19T11:59:11;14.90;;;6.07;;
48363;SDS011;34170;54.364;18.582;2023-06-19T12:01:38;9.75;;;6.50;;
48363;SDS011;34170;54.364;18.582;2023-06-19T12:04:06;13.63;;;6.20;;
48363;SDS011;34170;54.364;18.582;2023-06-19T12:06:34;15.05;;;6.20;;
48363;SDS011;34170;54.364;18.582;2023-06-19T12:09:05;20.63;;;6.22;;
48363;SDS011;34170;54.364;18.582;2023-06-19T12:11:33;10.07;;;5.68;;
48363;SDS011;34170;54.364;18.582;2023-06-19T12:14:01;17.52;;;6.78;;
48363;SDS011;34170;54.364;18.582;2023-06-19T12:16:29;9.40;;;5.70;;
48363;SDS011;34170;54.364;18.582;2023-06-19T12:18:57;10.70;;;5.93;;
48363;SDS011;34170;54.364;18.582;2023-06-19T12:21:25;7.82;;;5.78;;
48363;SDS011;34170;54.364;18.582;2023-06-19T12:24:05;7.32;;;5.47;;
48363;SDS011;34170;54.364;18.582;2023-06-19T12:26:34;8.30;;;5.47;;
48363;SDS011;34170;54.364;18.582;2023-06-19T12:29:06;11.13;;;5.93;;
48363;SDS011;34170;54.364;18.582;2023-06-19T12:31:35;8.50;;;5.97;;
48363;SDS011;34170;54.364;18.582;2023-06-19T12:34:06;13.02;;;6.13;;
48363;SDS011;34170;54.364;18.582;2023-06-19T12:36:54;12.95;;;6.43;;
48363;SDS011;34170;54.364;18.582;2023-06-19T12:39:21;8.65;;;5.85;;
48363;SDS011;34170;54.364;18.582;2023-06-19T12:41:49;9.43;;;5.80;;
48363;SDS011;34170;54.364;18.582;2023-06-19T12:44:17;10.48;;;5.80;;
48363;SDS011;34170;54.364;18.582;2023-06-19T12:46:45;12.70;;;6.95;;
48363;SDS011;34170;54.364;18.582;2023-06-19T12:49:13;9.30;;;6.22;;
48363;SDS011;34170;54.364;18.582;2023-06-19T12:51:40;30.35;;;9.02;;
48363;SDS011;34170;54.364;18.582;2023-06-19T12:54:08;79.38;;;14.38;;
48363;SDS011;34170;54.364;18.582;2023-06-19T12:56:36;58.67;;;14.77;;
48363;SDS011;34170;54.364;18.582;2023-06-19T12:59:04;15.15;;;6.30;;
48363;SDS011;34170;54.364;18.582;2023-06-19T13:01:31;35.20;;;9.55;;
48363;SDS011;34170;54.364;18.582;2023-06-19T13:03:59;36.85;;;10.15;;
48363;SDS011;34170;54.364;18.582;2023-06-19T13:06:27;14.85;;;7.03;;
48363;SDS011;34170;54.364;18.582;2023-06-19T13:08:55;9.80;;;6.75;;
48363;SDS011;34170;54.364;18.582;2023-06-19T13:11:23;15.88;;;6.80;;
48363;SDS011;34170;54.364;18.582;2023-06-19T13:13:50;13.90;;;6.70;;
48363;SDS011;34170;54.364;18.582;2023-06-19T13:16:18;9.93;;;6.05;;
48363;SDS011;34170;54.364;18.582;2023-06-19T13:19:06;10.95;;;6.63;;
48363;SDS011;34170;54.364;18.582;2023-06-19T13:21:34;9.00;;;6.38;;
48363;SDS011;34170;54.364;18.582;2023-06-19T13:24:03;8.25;;;5.75;;
48363;SDS011;34170;54.364;18.582;2023-06-19T13:26:31;21.45;;;7.25;;
48363;SDS011;34170;54.364;18.582;2023-06-19T13:28:59;13.60;;;6.47;;
48363;SDS011;34170;54.364;18.582;2023-06-19T13:31:27;9.90;;;5.97;;
48363;SDS011;34170;54.364;18.582;2023-06-19T13:33:55;11.85;;;6.50;;
48363;SDS011;34170;54.364;18.582;2023-06-19T13:36:23;17.65;;;6.35;;
48363;SDS011;34170;54.364;18.582;2023-06-19T13:38:54;20.08;;;6.82;;
48363;SDS011;34170;54.364;18.582;2023-06-19T13:41:22;10.77;;;6.43;;
48363;SDS011;34170;54.364;18.582;2023-06-19T13:43:54;8.27;;;5.43;;
48363;SDS011;34170;54.364;18.582;2023-06-19T13:46:21;8.95;;;5.60;;
48363;SDS011;34170;54.364;18.582;2023-06-19T13:48:49;8.65;;;5.60;;
48363;SDS011;34170;54.364;18.582;2023-06-19T13:51:19;9.45;;;5.93;;
48363;SDS011;34170;54.364;18.582;2023-06-19T13:53:48;12.15;;;6.85;;
48363;SDS011;34170;54.364;18.582;2023-06-19T13:56:17;9.60;;;6.15;;
48363;SDS011;34170;54.364;18.582;2023-06-19T13:58:45;8.45;;;5.75;;
48363;SDS011;34170;54.364;18.582;2023-06-19T14:01:13;10.88;;;5.72;;
48363;SDS011;34170;54.364;18.582;2023-06-19T14:03:41;11.07;;;6.20;;
48363;SDS011;34170;54.364;18.582;2023-06-19T14:06:10;10.82;;;5.68;;
48363;SDS011;34170;54.364;18.582;2023-06-19T14:08:38;9.25;;;6.05;;
48363;SDS011;34170;54.364;18.582;2023-06-19T14:11:07;10.43;;;6.05;;
48363;SDS011;34170;54.364;18.582;2023-06-19T14:13:35;8.52;;;6.20;;
48363;SDS011;34170;54.364;18.582;2023-06-19T14:16:03;9.25;;;6.15;;
48363;SDS011;34170;54.364;18.582;2023-06-19T14:18:31;13.95;;;6.03;;
48363;SDS011;34170;54.364;18.582;2023-06-19T14:20:58;8.48;;;5.35;;
48363;SDS011;34170;54.364;18.582;2023-06-19T14:23:26;17.17;;;6.75;;
48363;SDS011;34170;54.364;18.582;2023-06-19T14:25:54;11.38;;;6.20;;
48363;SDS011;34170;54.364;18.582;2023-06-19T14:28:21;12.27;;;6.20;;
48363;SDS011;34170;54.364;18.582;2023-06-19T14:30:49;14.25;;;7.25;;
48363;SDS011;34170;54.364;18.582;2023-06-19T14:33:17;11.10;;;5.47;;
48363;SDS011;34170;54.364;18.582;2023-06-19T14:35:44;22.80;;;7.15;;
48363;SDS011;34170;54.364;18.582;2023-06-19T14:38:13;17.45;;;6.32;;
48363;SDS011;34170;54.364;18.582;2023-06-19T14:40:41;13.10;;;6.50;;
48363;SDS011;34170;54.364;18.582;2023-06-19T14:43:09;15.32;;;6.50;;
48363;SDS011;34170;54.364;18.582;2023-06-19T14:45:37;16.33;;;7.18;;
48363;SDS011;34170;54.364;18.582;2023-06-19T14:48:06;11.73;;;6.03;;
48363;SDS011;34170;54.364;18.582;2023-06-19T14:50:34;11.98;;;6.60;;